Terminal Aerodrome Forecast
Issued by NWS

Home | Current Version | Previous Version | Text Only | Print | Product List | Glossary On
Versions: 1 2 3 4 5 6 7 8 9 10 11 12 13 14 15 16 17 18 19 20 21 22 23 24 25 26 27 28 29 30 31 32 33 34 35
000
FTUS44 KHGX 021140
TAFUTS
TAF
KUTS 021140Z 0212/0312 VRB04KT P6SM FEW005 SCT200
      TEMPO 0212/0213 BKN004
     FM021700 VRB05KT P6SM VCSH SCT035
     FM022200 15005KT P6SM BKN050 BKN250
     FM030600 13004KT P6SM SKC=

USA.gov is the U.S. government's official web portal to all federal, state and local government web resources and services.